Time;durP1;ratioP1;P1;durP2;ratioP2;P2;SDS_P1;SDS_P2;PMS_P1;PMS_P2;Temp;Humidity;BMP_temperature;BMP_pressure;BME280_temperature;BME280_humidity;BME280_pressure;Samples;Min_cycle;Max_cycle;Signal;HPM_P1;HPM_P2
2023/08/16 00:00:20;;;;;;;4.93;3.70;;;15.90;99.90;;;;;;5060311;28;20434;-76
2023/08/16 00:02:46;;;;;;;5.18;3.60;;;15.80;99.90;;;;;;5074079;28;20465;-76
2023/08/16 00:05:11;;;;;;;4.65;3.67;;;15.70;99.90;;;;;;5065116;28;20041;-76
2023/08/16 00:07:38;;;;;;;4.80;3.60;;;15.60;99.90;;;;;;5072009;28;20634;-76
2023/08/16 00:10:10;;;;;;;4.72;4.18;;;15.50;99.90;;;;;;5055949;28;20068;-76
2023/08/16 00:12:35;;;;;;;6.80;4.10;;;15.50;99.90;;;;;;5072370;28;20032;-76
2023/08/16 00:15:01;;;;;;;4.80;4.20;;;15.50;99.90;;;;;;5064288;28;20503;-75
2023/08/16 00:17:27;;;;;;;4.15;3.60;;;15.50;99.90;;;;;;5069785;28;20040;-76
2023/08/16 00:19:52;;;;;;;5.90;3.88;;;15.40;99.90;;;;;;5067081;28;20036;-76
2023/08/16 00:22:18;;;;;;;8.52;4.05;;;15.30;99.90;;;;;;5073782;28;20044;-76
2023/08/16 00:24:43;;;;;;;7.80;3.88;;;15.30;99.90;;;;;;5075664;28;20662;-76
2023/08/16 00:27:09;;;;;;;4.45;3.40;;;15.20;99.90;;;;;;5058669;28;20040;-76
2023/08/16 00:29:34;;;;;;;4.88;3.58;;;15.20;99.90;;;;;;5067170;28;20071;-77
2023/08/16 00:32:02;;;;;;;5.22;4.10;;;15.10;99.90;;;;;;5057044;28;20074;-77
2023/08/16 00:34:28;;;;;;;5.00;4.07;;;15.10;99.90;;;;;;5064186;28;20036;-76
2023/08/16 00:36:53;;;;;;;4.78;3.78;;;15.10;99.90;;;;;;5072241;28;20456;-76
2023/08/16 00:39:19;;;;;;;5.15;3.55;;;15.10;99.90;;;;;;5072813;28;20093;-76
2023/08/16 00:41:44;;;;;;;6.57;3.72;;;15.00;99.90;;;;;;5066716;28;20040;-76
2023/08/16 00:44:10;;;;;;;6.10;4.18;;;14.90;99.90;;;;;;5063987;28;20051;-77
2023/08/16 00:46:35;;;;;;;6.32;4.40;;;14.80;99.90;;;;;;5075014;28;20036;-77
2023/08/16 00:49:02;;;;;;;5.10;4.28;;;14.70;99.90;;;;;;5067147;28;20036;-76
2023/08/16 00:51:27;;;;;;;5.88;4.40;;;14.70;99.90;;;;;;5063050;28;20036;-77
2023/08/16 00:53:54;;;;;;;5.25;3.95;;;14.70;99.90;;;;;;5064886;28;20109;-77
2023/08/16 00:56:20;;;;;;;6.40;3.78;;;14.70;99.90;;;;;;5066620;28;20044;-77
2023/08/16 00:58:45;;;;;;;6.18;4.10;;;14.70;99.90;;;;;;5067610;28;20037;-76
2023/08/16 01:01:11;;;;;;;5.03;3.90;;;14.60;99.90;;;;;;5066482;28;20045;-76
2023/08/16 01:03:36;;;;;;;5.32;3.90;;;14.60;99.90;;;;;;5063166;28;20044;-76
2023/08/16 01:06:03;;;;;;;6.20;4.28;;;14.50;99.90;;;;;;5068585;28;20032;-76
2023/08/16 01:08:30;;;;;;;6.10;3.80;;;14.40;99.90;;;;;;5066388;28;20518;-76
2023/08/16 01:11:16;;;;;;;4.20;3.80;;;14.30;99.90;;;;;;5066749;28;20116;-76
2023/08/16 01:13:54;;;;;;;4.35;3.45;;;14.30;99.90;;;;;;5062823;28;20032;-76
2023/08/16 01:16:21;;;;;;;4.75;3.65;;;14.30;99.90;;;;;;5072626;28;20070;-77
2023/08/16 01:18:48;;;;;;;4.28;3.63;;;14.30;99.90;;;;;;5071130;28;20495;-76
2023/08/16 01:21:15;;;;;;;4.88;3.33;;;14.40;99.90;;;;;;5061713;28;20064;-76
2023/08/16 01:23:58;;;;;;;4.10;3.30;;;14.30;99.90;;;;;;5052628;28;20048;-77
2023/08/16 01:26:35;;;;;;;4.55;3.50;;;14.30;99.90;;;;;;5063953;28;20074;-77
2023/08/16 01:29:03;;;;;;;6.78;4.03;;;14.20;99.90;;;;;;5065194;28;20036;-77
2023/08/16 01:31:28;;;;;;;5.88;4.43;;;14.20;99.90;;;;;;5074731;28;20509;-77
2023/08/16 01:33:54;;;;;;;5.40;4.05;;;14.20;99.90;;;;;;5073197;28;20123;-77
2023/08/16 01:36:20;;;;;;;7.22;4.10;;;14.20;99.90;;;;;;5067201;28;20044;-77
2023/08/16 01:38:45;;;;;;;5.47;3.90;;;14.30;99.90;;;;;;5066539;28;20406;-76
2023/08/16 01:41:30;;;;;;;4.93;3.47;;;14.30;99.90;;;;;;5072979;28;20036;-77
2023/08/16 01:43:56;;;;;;;5.07;3.47;;;14.30;99.90;;;;;;5064614;28;20369;-77
2023/08/16 01:46:23;;;;;;;5.85;3.28;;;14.20;99.90;;;;;;5063220;28;20039;-77
2023/08/16 01:48:49;;;;;;;6.32;3.65;;;14.20;99.90;;;;;;5074233;28;20063;-76
2023/08/16 01:51:16;;;;;;;4.38;3.47;;;14.20;99.90;;;;;;5065137;28;20043;-77
2023/08/16 01:53:42;;;;;;;5.20;3.55;;;14.20;99.90;;;;;;5065137;28;20046;-76
2023/08/16 01:56:07;;;;;;;4.90;3.60;;;14.20;99.90;;;;;;5066746;28;20039;-77
2023/08/16 01:58:33;;;;;;;4.95;3.50;;;14.10;99.90;;;;;;5061684;28;20646;-76
2023/08/16 02:00:58;;;;;;;4.20;3.80;;;14.10;99.90;;;;;;5061721;28;20049;-76
2023/08/16 02:03:24;;;;;;;4.35;3.65;;;14.00;99.90;;;;;;5069601;28;20495;-76
2023/08/16 02:05:49;;;;;;;7.70;4.25;;;14.10;99.90;;;;;;5064489;28;20414;-76
2023/08/16 02:08:15;;;;;;;5.63;4.07;;;14.10;99.90;;;;;;5066780;28;20118;-76
2023/08/16 02:10:40;;;;;;;3.85;3.15;;;14.10;99.90;;;;;;5065673;28;20466;-76
2023/08/16 02:13:06;;;;;;;3.75;3.08;;;14.10;99.90;;;;;;5063830;28;20043;-76
2023/08/16 02:15:31;;;;;;;5.53;3.67;;;14.00;99.90;;;;;;5058768;28;20035;-76
2023/08/16 02:17:57;;;;;;;5.68;3.78;;;14.00;99.90;;;;;;5070037;28;20461;-76
2023/08/16 02:20:23;;;;;;;4.30;3.63;;;14.00;99.90;;;;;;5073920;28;20062;-76
2023/08/16 02:22:48;;;;;;;4.40;3.78;;;14.00;99.90;;;;;;5073072;28;20081;-76
2023/08/16 02:25:14;;;;;;;9.75;4.40;;;14.00;99.90;;;;;;5064795;28;20119;-77
2023/08/16 02:27:40;;;;;;;4.22;3.25;;;14.00;99.90;;;;;;5063368;28;20059;-77
2023/08/16 02:30:07;;;;;;;7.97;3.35;;;14.00;99.90;;;;;;5068723;28;20101;-76
2023/08/16 02:32:33;;;;;;;6.28;3.65;;;13.90;99.90;;;;;;5061709;28;20031;-77
2023/08/16 02:34:59;;;;;;;5.13;3.40;;;13.80;99.90;;;;;;5063328;28;20422;-77
2023/08/16 02:37:25;;;;;;;5.18;3.70;;;13.80;99.90;;;;;;5063012;28;20569;-77
2023/08/16 02:39:51;;;;;;;8.75;4.75;;;13.80;99.90;;;;;;5067673;28;20382;-77
2023/08/16 02:42:17;;;;;;;5.78;3.95;;;13.80;99.90;;;;;;5072834;28;20054;-77
2023/08/16 02:44:42;;;;;;;7.72;4.65;;;13.80;99.90;;;;;;5064237;28;20036;-76
2023/08/16 02:47:08;;;;;;;6.07;4.25;;;13.80;99.90;;;;;;5056349;28;20043;-77
2023/08/16 02:49:33;;;;;;;4.45;3.20;;;13.80;99.90;;;;;;5072686;28;20036;-77
2023/08/16 02:51:59;;;;;;;5.32;4.03;;;13.80;99.90;;;;;;5064998;28;20036;-77
2023/08/16 02:54:24;;;;;;;5.25;3.75;;;13.70;99.90;;;;;;5067959;28;20048;-77
2023/08/16 02:56:50;;;;;;;6.53;3.90;;;13.60;99.90;;;;;;5061243;28;20115;-77
2023/08/16 02:59:15;;;;;;;8.07;4.10;;;13.60;99.90;;;;;;5062441;28;20041;-76
2023/08/16 03:01:41;;;;;;;6.80;3.90;;;13.60;99.90;;;;;;5059961;28;20135;-76
2023/08/16 03:04:07;;;;;;;5.60;4.20;;;13.60;99.90;;;;;;5075658;28;20045;-76
2023/08/16 03:06:33;;;;;;;6.07;4.10;;;13.60;99.90;;;;;;5071972;28;20040;-77
2023/08/16 03:09:00;;;;;;;7.75;4.40;;;13.60;99.90;;;;;;5073092;28;20078;-77
2023/08/16 03:11:25;;;;;;;5.13;4.40;;;13.50;99.90;;;;;;5069305;28;20040;-77
2023/08/16 03:13:51;;;;;;;4.80;3.90;;;13.50;99.90;;;;;;5064094;28;20032;-77
2023/08/16 03:16:16;;;;;;;5.63;4.03;;;13.40;99.90;;;;;;5068552;28;20415;-76
2023/08/16 03:18:42;;;;;;;6.60;4.40;;;13.40;99.90;;;;;;5058046;28;20043;-76
2023/08/16 03:21:07;;;;;;;5.75;4.00;;;13.40;99.90;;;;;;5069216;28;20044;-77
2023/08/16 03:23:33;;;;;;;7.47;5.40;;;13.40;99.90;;;;;;5059923;28;20416;-77
2023/08/16 03:25:58;;;;;;;7.63;4.95;;;13.40;99.90;;;;;;5065708;28;20415;-77
2023/08/16 03:28:24;;;;;;;7.85;4.55;;;13.50;99.90;;;;;;5070095;28;20113;-76
2023/08/16 03:30:49;;;;;;;8.40;5.40;;;13.50;99.90;;;;;;5053098;28;20135;-77
2023/08/16 03:33:15;;;;;;;7.15;5.07;;;13.50;99.90;;;;;;5063536;28;20429;-77
2023/08/16 03:35:40;;;;;;;7.40;5.00;;;13.50;99.90;;;;;;5064297;28;20503;-76
2023/08/16 03:38:06;;;;;;;7.28;5.45;;;13.50;99.90;;;;;;5069928;28;20036;-76
2023/08/16 03:40:31;;;;;;;6.25;5.43;;;13.50;99.90;;;;;;5063809;28;20043;-76
2023/08/16 03:42:57;;;;;;;9.38;5.50;;;13.50;99.90;;;;;;5072325;28;20040;-77
2023/08/16 03:45:25;;;;;;;7.20;5.07;;;13.60;99.90;;;;;;5061780;28;20029;-76
2023/08/16 03:47:52;;;;;;;4.70;4.00;;;13.60;99.90;;;;;;5063790;28;20082;-77
2023/08/16 03:50:17;;;;;;;6.00;3.75;;;13.60;99.90;;;;;;5072722;28;20040;-77
2023/08/16 03:52:43;;;;;;;4.50;3.40;;;13.60;99.90;;;;;;5068436;28;20702;-77
2023/08/16 03:55:08;;;;;;;6.43;3.42;;;13.60;99.90;;;;;;5067245;28;20040;-76
2023/08/16 03:57:34;;;;;;;6.85;3.45;;;13.50;99.90;;;;;;5075825;28;20522;-77
2023/08/16 04:00:00;;;;;;;5.63;3.65;;;13.50;99.90;;;;;;5067706;28;20399;-77
2023/08/16 04:02:25;;;;;;;4.47;3.28;;;13.50;99.90;;;;;;5066242;28;20055;-77
2023/08/16 04:04:52;;;;;;;6.05;3.58;;;13.50;99.90;;;;;;5067875;28;20032;-77
2023/08/16 04:07:18;;;;;;;5.22;2.97;;;13.50;99.90;;;;;;5065286;28;20036;-77
2023/08/16 04:09:43;;;;;;;5.53;2.42;;;13.40;99.90;;;;;;5070893;28;20031;-77
2023/08/16 04:12:09;;;;;;;5.97;2.58;;;13.40;99.90;;;;;;5067866;28;20042;-77
2023/08/16 04:14:34;;;;;;;3.63;2.65;;;13.40;99.90;;;;;;5074779;28;20032;-77
2023/08/16 04:17:00;;;;;;;4.93;2.47;;;13.30;99.90;;;;;;5075950;28;20124;-76
2023/08/16 04:19:26;;;;;;;3.78;2.40;;;13.20;99.90;;;;;;5072739;28;20131;-76
2023/08/16 04:21:51;;;;;;;4.95;3.08;;;13.10;99.90;;;;;;5064406;28;20465;-76
2023/08/16 04:24:17;;;;;;;5.15;2.20;;;13.10;99.90;;;;;;5074076;28;20039;-77
2023/08/16 04:26:43;;;;;;;3.83;1.75;;;13.00;99.90;;;;;;5086857;28;20495;-77
2023/08/16 04:29:09;;;;;;;3.70;2.00;;;13.00;99.90;;;;;;5075553;28;20044;-77
2023/08/16 04:31:34;;;;;;;4.35;2.00;;;13.10;99.90;;;;;;5075184;28;20059;-76
2023/08/16 04:34:00;;;;;;;3.05;2.25;;;13.10;99.90;;;;;;5074461;28;20044;-77
2023/08/16 04:36:26;;;;;;;5.63;2.22;;;13.10;99.90;;;;;;5075251;28;20048;-76
2023/08/16 04:38:51;;;;;;;3.75;2.40;;;13.10;99.90;;;;;;5073579;28;20506;-76
2023/08/16 04:41:17;;;;;;;3.58;2.30;;;13.10;99.90;;;;;;5075862;28;20402;-77
2023/08/16 04:43:42;;;;;;;4.47;2.30;;;13.10;99.90;;;;;;5075478;28;20083;-76
2023/08/16 04:46:08;;;;;;;3.58;2.22;;;13.10;99.90;;;;;;5075364;28;20100;-77
2023/08/16 04:48:33;;;;;;;4.85;2.28;;;13.10;99.90;;;;;;5069836;28;20073;-76
2023/08/16 04:50:59;;;;;;;5.47;2.25;;;13.20;99.90;;;;;;5073721;28;20042;-77
2023/08/16 04:53:24;;;;;;;3.33;2.55;;;13.20;99.90;;;;;;5075298;28;20043;-76
2023/08/16 04:55:50;;;;;;;6.22;2.92;;;13.20;99.90;;;;;;5073079;28;20111;-77
2023/08/16 04:58:15;;;;;;;4.70;2.85;;;13.10;99.90;;;;;;5074892;28;20044;-77
2023/08/16 05:00:41;;;;;;;4.85;3.00;;;13.10;99.90;;;;;;5075210;28;20040;-77
2023/08/16 05:03:07;;;;;;;3.97;2.85;;;13.10;99.90;;;;;;5071774;28;20499;-76
2023/08/16 05:05:32;;;;;;;4.53;2.75;;;13.20;99.90;;;;;;5074041;28;20123;-77
2023/08/16 05:07:58;;;;;;;5.93;3.45;;;13.20;99.90;;;;;;5057409;28;20553;-77
2023/08/16 05:10:23;;;;;;;3.40;2.60;;;13.30;99.90;;;;;;5070563;28;20028;-77
2023/08/16 05:12:49;;;;;;;4.68;2.60;;;13.40;99.90;;;;;;5073794;28;20042;-76
2023/08/16 05:15:14;;;;;;;4.30;2.88;;;13.50;99.90;;;;;;5068035;28;20037;-77
2023/08/16 05:17:40;;;;;;;5.03;3.20;;;13.60;99.90;;;;;;5075133;28;20105;-77
2023/08/16 05:20:06;;;;;;;5.38;3.85;;;13.70;99.90;;;;;;5073553;28;20040;-77
2023/08/16 05:22:32;;;;;;;3.53;3.22;;;13.80;99.90;;;;;;5066068;28;20046;-77
2023/08/16 05:24:57;;;;;;;5.35;3.58;;;13.90;99.90;;;;;;5069444;28;20115;-77
2023/08/16 05:27:23;;;;;;;4.75;3.75;;;14.00;99.90;;;;;;5074090;28;20036;-77
2023/08/16 05:29:48;;;;;;;4.18;3.75;;;14.00;99.90;;;;;;5074640;28;20119;-78
2023/08/16 05:32:14;;;;;;;7.80;4.28;;;14.20;99.90;;;;;;5074622;28;20067;-77
2023/08/16 05:34:40;;;;;;;5.28;4.20;;;14.30;99.90;;;;;;5065500;28;20499;-77
2023/08/16 05:37:06;;;;;;;6.32;3.70;;;14.50;99.90;;;;;;5064319;28;20121;-77
2023/08/16 05:39:32;;;;;;;8.45;4.35;;;14.60;99.90;;;;;;5063319;28;20043;-77
2023/08/16 05:41:57;;;;;;;5.78;4.38;;;14.70;99.90;;;;;;5066578;28;20407;-78
2023/08/16 05:44:23;;;;;;;5.95;4.30;;;14.80;99.90;;;;;;5074027;28;20043;-78
2023/08/16 05:46:48;;;;;;;5.55;4.40;;;15.00;99.90;;;;;;5062429;28;20090;-78
2023/08/16 05:49:14;;;;;;;4.57;3.40;;;15.10;99.90;;;;;;5070655;28;20411;-77
2023/08/16 05:51:39;;;;;;;5.80;4.00;;;15.20;99.90;;;;;;5074673;28;20495;-76
2023/08/16 05:54:05;;;;;;;8.10;4.50;;;15.20;99.90;;;;;;5072957;28;20046;-77
2023/08/16 05:56:30;;;;;;;6.03;3.80;;;15.30;99.90;;;;;;5073006;28;20042;-77
2023/08/16 05:58:56;;;;;;;4.47;3.35;;;15.40;99.90;;;;;;5073495;28;20507;-77
2023/08/16 06:01:22;;;;;;;5.85;4.10;;;15.50;99.90;;;;;;5074029;28;20112;-77
2023/08/16 06:03:47;;;;;;;5.63;3.90;;;15.60;99.90;;;;;;5059671;28;20040;-77
2023/08/16 06:06:13;;;;;;;5.82;4.10;;;15.80;99.90;;;;;;5060636;28;20043;-76
2023/08/16 06:08:38;;;;;;;6.57;4.80;;;15.90;99.90;;;;;;5069906;28;20466;-77
2023/08/16 06:11:04;;;;;;;6.68;4.35;;;16.00;99.90;;;;;;5055235;28;20040;-77
2023/08/16 06:13:30;;;;;;;5.47;4.15;;;16.10;99.90;;;;;;5070395;28;20498;-77
2023/08/16 06:15:56;;;;;;;9.05;5.63;;;16.20;99.90;;;;;;5071631;28;20043;-77
2023/08/16 06:18:21;;;;;;;7.55;5.30;;;16.30;99.90;;;;;;5072009;28;20036;-77
2023/08/16 06:20:47;;;;;;;11.35;6.00;;;16.50;99.90;;;;;;5071940;28;20411;-76
2023/08/16 06:23:12;;;;;;;7.22;5.53;;;16.60;99.90;;;;;;5073371;28;20039;-77
2023/08/16 06:25:38;;;;;;;7.05;4.75;;;16.80;99.90;;;;;;5073794;28;20043;-77
2023/08/16 06:28:04;;;;;;;7.35;5.15;;;16.80;99.90;;;;;;5073655;28;20039;-77
2023/08/16 06:30:29;;;;;;;9.82;5.25;;;16.80;99.90;;;;;;5073628;28;20032;-77
2023/08/16 06:32:55;;;;;;;6.65;5.40;;;16.90;99.90;;;;;;5073352;28;20080;-76
2023/08/16 06:35:20;;;;;;;8.75;5.70;;;16.90;99.90;;;;;;5073198;28;20036;-76
2023/08/16 06:37:46;;;;;;;7.60;4.70;;;17.00;99.90;;;;;;5073128;28;20085;-77
2023/08/16 06:40:12;;;;;;;10.65;5.00;;;17.10;99.90;;;;;;5073083;28;20047;-77
2023/08/16 06:42:41;;;;;;;10.48;5.30;;;17.20;99.90;;;;;;5073673;28;20738;-77
2023/08/16 06:45:08;;;;;;;7.15;4.80;;;17.20;99.90;;;;;;5073294;28;20036;-76
2023/08/16 06:47:33;;;;;;;8.18;4.93;;;17.30;99.90;;;;;;5090022;28;20072;-76
2023/08/16 06:49:59;;;;;;;11.75;5.47;;;17.50;99.90;;;;;;5071167;28;20039;-76
2023/08/16 06:52:25;;;;;;;7.18;4.63;;;17.50;99.90;;;;;;5071776;28;20478;-76
2023/08/16 06:54:50;;;;;;;6.38;5.00;;;17.60;99.90;;;;;;5055163;28;20091;-76
2023/08/16 06:57:16;;;;;;;9.25;4.95;;;17.80;99.90;;;;;;5072973;28;20046;-76
2023/08/16 06:59:41;;;;;;;7.30;4.78;;;17.90;99.90;;;;;;5073301;28;20417;-76
2023/08/16 07:02:11;;;;;;;10.27;4.95;;;18.00;99.90;;;;;;5071994;28;20046;-76
2023/08/16 07:04:38;;;;;;;5.80;4.20;;;18.00;99.90;;;;;;5057190;28;20032;-76
2023/08/16 07:07:05;;;;;;;6.70;4.45;;;18.20;99.90;;;;;;5057829;28;20430;-77
2023/08/16 07:09:30;;;;;;;8.25;4.70;;;18.20;99.90;;;;;;5061843;28;20502;-77
2023/08/16 07:11:56;;;;;;;7.75;4.20;;;18.20;99.90;;;;;;5072421;28;20074;-77
2023/08/16 07:14:21;;;;;;;5.65;4.05;;;18.10;99.90;;;;;;5072021;28;20124;-76
2023/08/16 07:16:47;;;;;;;10.02;4.53;;;18.10;99.90;;;;;;5072137;28;20046;-77
2023/08/16 07:19:12;;;;;;;5.60;4.47;;;18.20;99.90;;;;;;5072814;28;20448;-77
2023/08/16 07:21:39;;;;;;;5.60;4.13;;;18.30;99.90;;;;;;5072691;28;20039;-77
2023/08/16 07:24:04;;;;;;;7.25;3.88;;;18.30;99.90;;;;;;5072439;28;20570;-77
2023/08/16 07:26:30;;;;;;;7.25;3.30;;;18.40;99.90;;;;;;5075672;28;20028;-77
2023/08/16 07:28:55;;;;;;;7.35;3.92;;;18.60;99.90;;;;;;5077079;28;20043;-77
2023/08/16 07:31:22;;;;;;;5.65;4.00;;;18.70;99.90;;;;;;5076974;28;20032;-77
2023/08/16 07:33:47;;;;;;;6.20;3.85;;;18.80;99.90;;;;;;5076705;28;20036;-77
2023/08/16 07:36:13;;;;;;;7.22;3.47;;;19.10;99.90;;;;;;5076797;28;20051;-77
2023/08/16 07:38:38;;;;;;;6.43;3.20;;;19.30;99.90;;;;;;5076792;28;20044;-77
2023/08/16 07:41:04;;;;;;;5.65;3.30;;;19.40;99.90;;;;;;5076814;28;20040;-77
2023/08/16 07:43:29;;;;;;;8.52;3.60;;;19.40;99.90;;;;;;5073891;28;20032;-77
2023/08/16 07:45:55;;;;;;;5.05;3.38;;;19.40;99.90;;;;;;5076031;28;20118;-77
2023/08/16 07:48:21;;;;;;;7.05;3.08;;;19.50;99.90;;;;;;5094388;28;20457;-77
2023/08/16 07:50:47;;;;;;;4.72;2.80;;;19.70;99.90;;;;;;5076211;28;20118;-77
2023/08/16 07:53:13;;;;;;;5.32;2.80;;;19.90;99.90;;;;;;5076601;28;20447;-77
2023/08/16 07:55:38;;;;;;;6.00;3.55;;;20.10;99.90;;;;;;5075685;28;20044;-77
2023/08/16 07:58:04;;;;;;;6.63;2.78;;;20.20;99.90;;;;;;5075806;28;20043;-77
2023/08/16 08:00:30;;;;;;;5.57;3.08;;;20.40;99.90;;;;;;5076105;28;20036;-78
2023/08/16 08:02:55;;;;;;;6.10;3.22;;;20.40;99.90;;;;;;5073437;28;20051;-77
2023/08/16 08:05:22;;;;;;;5.07;2.83;;;20.40;99.90;;;;;;5069681;28;20360;-78
2023/08/16 08:07:48;;;;;;;7.53;2.95;;;20.50;99.90;;;;;;5075639;28;20033;-77
2023/08/16 08:10:15;;;;;;;5.25;2.70;;;20.60;99.90;;;;;;5077599;28;20106;-78
2023/08/16 08:12:45;;;;;;;6.65;2.40;;;20.50;99.90;;;;;;5073631;28;20407;-77
2023/08/16 08:15:10;;;;;;;6.78;2.47;;;20.30;99.90;;;;;;5077305;28;20503;-77
2023/08/16 08:17:36;;;;;;;8.10;2.70;;;20.10;99.90;;;;;;5072282;28;20062;-77
2023/08/16 08:20:03;;;;;;;4.65;2.05;;;20.00;99.90;;;;;;5073505;28;20427;-77
2023/08/16 08:22:29;;;;;;;6.25;1.90;;;20.10;99.90;;;;;;5070407;28;20035;-78
2023/08/16 08:24:54;;;;;;;6.57;2.35;;;20.40;99.90;;;;;;5073278;28;20051;-77
2023/08/16 08:27:20;;;;;;;6.22;2.13;;;20.60;99.90;;;;;;5070613;28;20033;-77
2023/08/16 08:29:46;;;;;;;4.30;1.92;;;20.90;99.90;;;;;;5085501;28;20483;-77
2023/08/16 08:32:12;;;;;;;5.13;1.80;;;21.10;99.90;;;;;;5077300;28;20372;-77
2023/08/16 08:34:38;;;;;;;3.75;1.60;;;21.30;99.90;;;;;;5073791;28;20050;-79
2023/08/16 08:37:04;;;;;;;4.70;1.63;;;21.40;99.90;;;;;;5075150;28;20503;-77
2023/08/16 08:39:30;;;;;;;4.47;1.50;;;21.60;99.90;;;;;;5071592;28;20047;-77
2023/08/16 08:41:56;;;;;;;4.93;1.60;;;21.40;99.90;;;;;;5072066;28;20471;-77
2023/08/16 08:44:23;;;;;;;3.25;1.42;;;21.20;99.90;;;;;;5074905;28;20074;-77
2023/08/16 08:46:50;;;;;;;3.75;1.92;;;21.20;99.90;;;;;;5074518;28;20040;-77
2023/08/16 08:49:15;;;;;;;3.17;1.55;;;21.20;99.90;;;;;;5074793;28;20040;-77
2023/08/16 08:51:41;;;;;;;5.70;1.55;;;21.10;99.90;;;;;;5074938;28;20484;-76
2023/08/16 08:54:07;;;;;;;4.90;1.80;;;20.90;99.90;;;;;;5074994;28;20514;-77
2023/08/16 08:56:33;;;;;;;3.28;1.50;;;20.80;99.90;;;;;;5074552;28;20043;-77
2023/08/16 08:59:03;;;;;;;3.58;1.60;;;20.60;99.90;;;;;;5075229;28;20723;-77
2023/08/16 09:01:31;;;;;;;8.23;1.73;;;20.50;99.90;;;;;;5074030;28;20125;-77
2023/08/16 09:04:00;;;;;;;4.45;1.60;;;20.50;99.90;;;;;;5066463;28;20108;-77
2023/08/16 09:06:25;;;;;;;3.55;1.40;;;20.70;99.90;;;;;;5073967;28;20075;-76
2023/08/16 09:08:52;;;;;;;3.83;1.30;;;20.80;99.90;;;;;;5074978;28;20440;-76
2023/08/16 09:11:19;;;;;;;2.63;1.50;;;20.90;99.90;;;;;;5074701;28;20032;-76
2023/08/16 09:13:45;;;;;;;2.40;1.17;;;20.90;99.90;;;;;;5074665;28;20059;-76
2023/08/16 09:16:11;;;;;;;3.28;1.30;;;21.10;99.90;;;;;;5057270;28;20043;-76
2023/08/16 09:18:36;;;;;;;4.38;1.42;;;21.10;99.90;;;;;;5074248;28;20040;-76
2023/08/16 09:21:02;;;;;;;4.13;1.40;;;20.90;99.90;;;;;;5058385;28;20098;-76
2023/08/16 09:23:28;;;;;;;5.25;1.48;;;20.90;99.90;;;;;;5074646;28;20055;-77
2023/08/16 09:25:53;;;;;;;4.78;1.38;;;21.00;99.90;;;;;;5074412;28;20032;-77
2023/08/16 09:28:20;;;;;;;3.22;1.40;;;21.20;99.90;;;;;;5074947;28;20119;-77
2023/08/16 09:30:46;;;;;;;3.60;1.33;;;21.50;99.90;;;;;;5058162;28;20038;-77
2023/08/16 09:33:17;;;;;;;4.70;1.73;;;21.80;99.90;;;;;;5058266;28;20032;-77
2023/08/16 09:35:51;;;;;;;2.53;1.70;;;22.00;99.90;;;;;;5058319;28;20085;-79
2023/08/16 09:38:20;;;;;;;;;;;22.20;99.90;;;;;;5075141;28;20047;-78
2023/08/16 09:40:50;;;;;;;4.03;1.60;;;22.30;99.90;;;;;;5074796;28;19919;-78
2023/08/16 09:43:16;;;;;;;4.70;1.50;;;22.40;99.90;;;;;;5074540;28;20403;-77
2023/08/16 09:45:45;;;;;;;3.00;1.25;;;22.30;99.90;;;;;;5074328;28;20490;-77
2023/08/16 09:48:11;;;;;;;3.97;1.75;;;22.30;99.90;;;;;;5073423;28;20089;-78
2023/08/16 09:50:37;;;;;;;3.08;1.30;;;22.50;99.90;;;;;;5074423;28;20036;-78
2023/08/16 09:53:04;;;;;;;6.85;1.67;;;22.60;99.90;;;;;;5074651;28;20515;-77
2023/08/16 09:55:35;;;;;;;5.75;1.70;;;22.70;99.90;;;;;;5072991;28;20040;-78
2023/08/16 09:58:01;;;;;;;3.35;1.30;;;22.90;99.90;;;;;;5073966;28;20041;-77
2023/08/16 10:00:32;;;;;;;2.15;1.13;;;23.00;99.90;;;;;;5073907;28;20106;-77
2023/08/16 10:02:58;;;;;;;3.85;1.40;;;22.90;99.90;;;;;;5074496;28;20458;-76
2023/08/16 10:05:25;;;;;;;2.85;1.20;;;22.80;99.90;;;;;;5073886;28;20040;-77
2023/08/16 10:07:51;;;;;;;3.58;1.17;;;22.40;99.90;;;;;;5073962;28;20035;-76
2023/08/16 10:10:17;;;;;;;3.53;1.30;;;22.50;99.90;;;;;;5074029;28;20044;-78
2023/08/16 10:12:45;;;;;;;3.15;1.33;;;22.50;99.90;;;;;;5074145;28;20042;-78
2023/08/16 10:15:11;;;;;;;4.38;1.70;;;22.80;99.90;;;;;;5074387;28;20410;-77
2023/08/16 10:17:39;;;;;;;4.30;1.60;;;23.00;99.90;;;;;;5073811;28;20487;-77
2023/08/16 10:20:11;;;;;;;3.13;1.10;;;23.00;99.90;;;;;;5073914;28;20524;-78
2023/08/16 10:22:42;;;;;;;5.28;1.55;;;22.90;99.90;;;;;;5073800;28;20073;-78
2023/08/16 10:25:17;;;;;;;3.97;1.48;;;22.90;99.90;;;;;;5073616;28;20047;-78
2023/08/16 10:27:45;;;;;;;4.88;1.95;;;23.00;99.90;;;;;;5068761;28;20047;-76
2023/08/16 10:30:20;;;;;;;3.95;1.60;;;23.10;99.90;;;;;;5056998;28;20574;-77
2023/08/16 10:32:47;;;;;;;3.33;1.40;;;23.20;99.90;;;;;;5073701;28;20024;-78
2023/08/16 10:35:14;;;;;;;2.13;1.50;;;23.30;99.90;;;;;;5056578;28;20411;-76
2023/08/16 10:37:40;;;;;;;4.85;1.70;;;23.40;99.90;;;;;;5073383;28;20402;-78
2023/08/16 10:40:20;;;;;;;5.28;1.75;;;23.40;99.90;;;;;;5073277;28;20050;-78
2023/08/16 10:42:52;;;;;;;4.15;1.73;;;23.50;99.90;;;;;;5073618;28;20093;-77
2023/08/16 10:45:36;;;;;;;3.28;1.77;;;23.50;99.90;;;;;;5073412;28;20467;-77
2023/08/16 10:48:16;;;;;;;3.80;1.58;;;23.60;99.90;;;;;;5068994;28;20059;-77
2023/08/16 10:50:42;;;;;;;2.92;1.65;;;23.90;99.90;;;;;;5065793;28;20123;-78
2023/08/16 10:53:08;;;;;;;4.95;1.73;;;23.80;99.90;;;;;;5073439;28;20036;-78
2023/08/16 10:55:34;;;;;;;5.40;1.77;;;23.80;99.90;;;;;;5073412;28;20110;-78
2023/08/16 10:58:00;;;;;;;4.75;1.60;;;23.60;99.90;;;;;;5073210;28;20040;-77
2023/08/16 11:00:32;;;;;;;4.38;1.70;;;23.60;99.90;;;;;;5073413;28;20545;-79
2023/08/16 11:03:00;;;;;;;5.95;2.10;;;23.90;99.90;;;;;;5073453;28;20032;-79
2023/08/16 11:05:28;;;;;;;3.67;1.70;;;24.00;99.90;;;;;;5073213;28;20070;-77
2023/08/16 11:07:54;;;;;;;5.03;1.70;;;24.30;99.90;;;;;;5073319;28;20062;-79
2023/08/16 11:10:20;;;;;;;4.38;1.75;;;24.40;99.90;;;;;;5072997;28;20024;-77
2023/08/16 11:12:46;;;;;;;2.97;1.50;;;24.20;99.90;;;;;;5073224;28;20034;-77
2023/08/16 11:15:17;;;;;;;3.90;1.67;;;24.00;99.90;;;;;;5073037;28;20052;-78
2023/08/16 11:17:44;;;;;;;3.70;1.48;;;23.90;99.90;;;;;;5065677;28;20040;-77
2023/08/16 11:20:12;;;;;;;3.72;1.58;;;23.70;99.90;;;;;;5073084;28;20453;-77
2023/08/16 11:22:37;;;;;;;3.83;1.40;;;23.80;99.90;;;;;;5072808;28;20044;-75
2023/08/16 11:25:03;;;;;;;2.20;1.38;;;24.00;99.90;;;;;;5072782;28;20043;-77
2023/08/16 11:27:29;;;;;;;5.10;1.48;;;24.30;99.90;;;;;;5055919;28;20040;-76
2023/08/16 11:29:54;;;;;;;3.38;1.48;;;24.40;99.90;;;;;;5072704;28;20051;-77
2023/08/16 11:32:35;;;;;;;2.40;1.23;;;24.60;99.90;;;;;;5072705;28;20104;-77
2023/08/16 11:35:08;;;;;;;6.07;1.55;;;24.80;99.90;;;;;;5072549;28;20483;-77
2023/08/16 11:37:35;;;;;;;5.05;1.90;;;24.70;99.90;;;;;;5072752;28;20036;-77
2023/08/16 11:40:01;;;;;;;3.20;1.23;;;24.50;99.90;;;;;;5072673;28;20055;-77
2023/08/16 11:42:28;;;;;;;4.15;1.20;;;24.30;99.90;;;;;;5072383;28;20126;-77
2023/08/16 11:44:54;;;;;;;2.67;1.15;;;24.00;99.90;;;;;;5072499;28;20063;-77
2023/08/16 11:47:19;;;;;;;2.80;1.05;;;23.80;99.90;;;;;;5072375;28;20039;-76
2023/08/16 11:49:48;;;;;;;3.47;1.70;;;23.90;99.90;;;;;;5090665;28;20043;-77
2023/08/16 11:52:18;;;;;;;3.70;1.60;;;24.00;99.90;;;;;;5072704;28;20043;-78
2023/08/16 11:54:44;;;;;;;3.85;1.65;;;24.00;99.90;;;;;;5065159;28;20388;-77
2023/08/16 11:57:18;;;;;;;3.40;2.08;;;23.90;99.90;;;;;;5072476;28;20092;-77
2023/08/16 11:59:52;;;;;;;3.70;2.00;;;23.90;99.90;;;;;;5056116;28;20538;-78
2023/08/16 12:02:18;;;;;;;5.20;2.03;;;24.10;99.90;;;;;;5072467;28;20047;-77
2023/08/16 12:04:43;;;;;;;3.55;1.90;;;24.70;99.90;;;;;;5072453;28;20040;-77
2023/08/16 12:07:10;;;;;;;3.75;1.83;;;24.80;99.90;;;;;;5072159;28;20426;-76
2023/08/16 12:09:40;;;;;;;2.80;1.67;;;24.50;99.90;;;;;;5072673;28;20132;-76
2023/08/16 12:12:08;;;;;;;6.65;2.60;;;24.30;99.90;;;;;;5075046;28;20094;-77
2023/08/16 12:14:33;;;;;;;6.50;2.25;;;24.10;99.90;;;;;;5075967;28;20105;-77
2023/08/16 12:16:59;;;;;;;3.70;1.98;;;24.00;99.90;;;;;;5075927;28;20047;-77
2023/08/16 12:19:25;;;;;;;6.60;2.53;;;24.00;99.90;;;;;;5076243;28;20032;-77
2023/08/16 12:21:52;;;;;;;4.35;2.30;;;24.00;99.90;;;;;;5076134;28;20082;-77
2023/08/16 12:24:17;;;;;;;5.05;2.30;;;23.90;99.90;;;;;;5075754;28;20044;-77
2023/08/16 12:26:43;;;;;;;4.43;2.72;;;23.90;99.90;;;;;;5075818;28;20042;-77
2023/08/16 12:29:09;;;;;;;5.85;2.67;;;23.80;99.90;;;;;;5075797;28;20040;-78
2023/08/16 12:31:34;;;;;;;7.50;2.47;;;23.80;99.90;;;;;;5059276;28;20428;-77
2023/08/16 12:34:00;;;;;;;4.95;2.33;;;23.80;99.90;;;;;;5076238;28;20040;-77
2023/08/16 12:36:26;;;;;;;4.07;2.15;;;23.80;99.90;;;;;;5075547;28;20044;-78
2023/08/16 12:38:51;;;;;;;4.93;2.70;;;23.80;99.90;;;;;;5076181;28;20040;-78
2023/08/16 12:41:17;;;;;;;3.83;2.13;;;23.90;99.90;;;;;;5076090;28;20625;-77
2023/08/16 12:43:42;;;;;;;5.93;2.65;;;23.90;99.90;;;;;;5058760;28;20522;-77